CheckWX is a tool to help pilots better visualize weather data.  It is not intended as a substitute for an official pre-flight weather briefing.

20:24:23 UTC

KCUH METAR
Cushing Municipal Airport
Cushing, Oklahoma, USA
Current

9 mins ago

KCUH 202015Z AUTO 18008KT 10SM CLR 26/07 A2992 RMK AO2 T02570065
Observed
Apr-20 @ 20:15 UTC
Wind
  • 180° at 8 KTS
Visibility
10 SM
Flight Rules
VFR
Cloud Levels
  • Clear skies
Temperature
26°C / 79°F
Dewpoint
C / 45°F
Humidity
30%
Altimeter
29.92" Hg
Pressure
1013.22 hPa
Previous

29 mins ago

KCUH 201955Z AUTO 21008G16KT 10SM CLR 25/06 A2993 RMK AO2 T02510064
Observed
Apr-20 @ 19:55 UTC
Wind
  • 210° at 8 KTS
  • Gusting to 16 KTS
Visibility
10 SM
Flight Rules
VFR
Cloud Levels
  • Clear skies
Temperature
25°C / 77°F
Dewpoint
C / 43°F
Humidity
30%
Altimeter
29.93" Hg
Pressure
1013.52 hPa
Previous

49 mins ago

KCUH 201935Z AUTO 21011KT 10SM CLR 25/07 A2994 RMK AO2 T02530068
Observed
Apr-20 @ 19:35 UTC
Wind
  • 210° at 11 KTS
Visibility
10 SM
Flight Rules
VFR
Cloud Levels
  • Clear skies
Temperature
25°C / 77°F
Dewpoint
C / 45°F
Humidity
32%
Altimeter
29.94" Hg
Pressure
1013.92 hPa